sensor_id;sensor_type;location;lat;lon;timestamp;pressure;altitude;pressure_sealevel;temperature;humidity
4745;BME280;2386;42.138;24.746;2023-05-20T00:01:18;99814.22;;;16.90;100.00
4745;BME280;2386;42.138;24.746;2023-05-20T00:03:44;99808.44;;;16.86;100.00
4745;BME280;2386;42.138;24.746;2023-05-20T00:06:10;99807.91;;;16.89;100.00
4745;BME280;2386;42.138;24.746;2023-05-20T00:08:35;99805.19;;;16.89;100.00
4745;BME280;2386;42.138;24.746;2023-05-20T00:11:01;99803.53;;;16.93;100.00
4745;BME280;2386;42.138;24.746;2023-05-20T00:13:26;99807.66;;;16.91;100.00
4745;BME280;2386;42.138;24.746;2023-05-20T00:15:51;99803.81;;;16.92;100.00
4745;BME280;2386;42.138;24.746;2023-05-20T00:18:17;99810.69;;;16.94;100.00
4745;BME280;2386;42.138;24.746;2023-05-20T00:20:43;99797.00;;;16.99;100.00
4745;BME280;2386;42.138;24.746;2023-05-20T00:23:08;99800.81;;;16.98;100.00
4745;BME280;2386;42.138;24.746;2023-05-20T00:25:33;99796.41;;;16.92;100.00
4745;BME280;2386;42.138;24.746;2023-05-20T00:27:59;99796.41;;;16.87;100.00
4745;BME280;2386;42.138;24.746;2023-05-20T00:30:25;99799.13;;;16.82;100.00
4745;BME280;2386;42.138;24.746;2023-05-20T00:32:50;99790.38;;;16.90;100.00
4745;BME280;2386;42.138;24.746;2023-05-20T00:35:15;99794.75;;;16.86;100.00
4745;BME280;2386;42.138;24.746;2023-05-20T00:37:41;99792.53;;;16.78;100.00
4745;BME280;2386;42.138;24.746;2023-05-20T00:40:07;99795.81;;;16.80;100.00
4745;BME280;2386;42.138;24.746;2023-05-20T00:42:33;99798.84;;;16.84;100.00
4745;BME280;2386;42.138;24.746;2023-05-20T00:44:59;99801.28;;;16.80;100.00
4745;BME280;2386;42.138;24.746;2023-05-20T00:47:34;99791.16;;;16.81;100.00
4745;BME280;2386;42.138;24.746;2023-05-20T00:50:00;99794.28;;;16.57;100.00
4745;BME280;2386;42.138;24.746;2023-05-20T00:52:30;99794.13;;;16.69;100.00
4745;BME280;2386;42.138;24.746;2023-05-20T00:54:56;99792.34;;;16.53;100.00
4745;BME280;2386;42.138;24.746;2023-05-20T00:57:22;99796.19;;;16.52;100.00
4745;BME280;2386;42.138;24.746;2023-05-20T00:59:47;99787.63;;;16.38;100.00
4745;BME280;2386;42.138;24.746;2023-05-20T01:02:13;99791.44;;;16.37;100.00
4745;BME280;2386;42.138;24.746;2023-05-20T01:04:38;99778.81;;;16.26;100.00
4745;BME280;2386;42.138;24.746;2023-05-20T01:07:05;99780.72;;;16.25;100.00
4745;BME280;2386;42.138;24.746;2023-05-20T01:09:32;99770.31;;;16.27;100.00
4745;BME280;2386;42.138;24.746;2023-05-20T01:14:29;99779.84;;;16.20;100.00
4745;BME280;2386;42.138;24.746;2023-05-20T01:16:58;99779.09;;;16.29;100.00
4745;BME280;2386;42.138;24.746;2023-05-20T01:19:32;99774.19;;;16.36;100.00
4745;BME280;2386;42.138;24.746;2023-05-20T01:22:05;99778.31;;;16.34;100.00
4745;BME280;2386;42.138;24.746;2023-05-20T01:24:31;99773.63;;;16.29;100.00
4745;BME280;2386;42.138;24.746;2023-05-20T01:26:59;99772.28;;;16.32;100.00
4745;BME280;2386;42.138;24.746;2023-05-20T01:29:25;99769.81;;;16.35;100.00
4745;BME280;2386;42.138;24.746;2023-05-20T01:31:51;99773.06;;;16.27;100.00
4745;BME280;2386;42.138;24.746;2023-05-20T01:34:17;99771.31;;;16.11;100.00
4745;BME280;2386;42.138;24.746;2023-05-20T01:36:44;99780.16;;;16.23;100.00
4745;BME280;2386;42.138;24.746;2023-05-20T01:39:11;99779.59;;;16.21;100.00
4745;BME280;2386;42.138;24.746;2023-05-20T01:41:37;99779.31;;;16.18;100.00
4745;BME280;2386;42.138;24.746;2023-05-20T01:44:02;99769.28;;;15.96;100.00
4745;BME280;2386;42.138;24.746;2023-05-20T01:46:32;99773.94;;;15.96;100.00
4745;BME280;2386;42.138;24.746;2023-05-20T01:48:57;99773.63;;;15.92;100.00
4745;BME280;2386;42.138;24.746;2023-05-20T01:51:23;99764.56;;;15.87;100.00
4745;BME280;2386;42.138;24.746;2023-05-20T01:53:49;99765.88;;;15.79;100.00
4745;BME280;2386;42.138;24.746;2023-05-20T01:56:14;99769.53;;;15.58;100.00
4745;BME280;2386;42.138;24.746;2023-05-20T01:58:39;99762.66;;;15.55;100.00
4745;BME280;2386;42.138;24.746;2023-05-20T02:01:05;99772.41;;;15.46;100.00
4745;BME280;2386;42.138;24.746;2023-05-20T02:03:30;99769.72;;;15.51;100.00
4745;BME280;2386;42.138;24.746;2023-05-20T02:05:56;99769.69;;;15.46;100.00
4745;BME280;2386;42.138;24.746;2023-05-20T02:08:21;99759.53;;;15.41;100.00
4745;BME280;2386;42.138;24.746;2023-05-20T02:10:47;99751.63;;;15.45;100.00
4745;BME280;2386;42.138;24.746;2023-05-20T02:13:13;99745.03;;;15.41;100.00
4745;BME280;2386;42.138;24.746;2023-05-20T02:15:41;99751.56;;;15.40;100.00
4745;BME280;2386;42.138;24.746;2023-05-20T02:18:07;99745.44;;;15.28;100.00
4745;BME280;2386;42.138;24.746;2023-05-20T02:20:35;99734.00;;;15.31;100.00
4745;BME280;2386;42.138;24.746;2023-05-20T02:23:01;99738.63;;;15.30;100.00
4745;BME280;2386;42.138;24.746;2023-05-20T02:25:30;99744.00;;;15.20;100.00
4745;BME280;2386;42.138;24.746;2023-05-20T02:27:55;99738.13;;;15.06;100.00
4745;BME280;2386;42.138;24.746;2023-05-20T02:30:20;99734.31;;;15.07;100.00
4745;BME280;2386;42.138;24.746;2023-05-20T02:32:46;99742.56;;;15.12;100.00
4745;BME280;2386;42.138;24.746;2023-05-20T02:35:13;99742.34;;;15.19;100.00
4745;BME280;2386;42.138;24.746;2023-05-20T02:37:39;99749.88;;;15.07;100.00
4745;BME280;2386;42.138;24.746;2023-05-20T02:40:05;99740.75;;;14.96;100.00
4745;BME280;2386;42.138;24.746;2023-05-20T02:42:33;99736.34;;;14.95;100.00
4745;BME280;2386;42.138;24.746;2023-05-20T02:44:58;99735.53;;;14.95;100.00
4745;BME280;2386;42.138;24.746;2023-05-20T02:47:24;99736.09;;;14.97;100.00
4745;BME280;2386;42.138;24.746;2023-05-20T02:49:49;99738.31;;;15.00;100.00
4745;BME280;2386;42.138;24.746;2023-05-20T02:52:15;99743.84;;;15.05;100.00
4745;BME280;2386;42.138;24.746;2023-05-20T02:54:40;99746.94;;;15.13;100.00
4745;BME280;2386;42.138;24.746;2023-05-20T02:57:06;99738.53;;;15.20;100.00
4745;BME280;2386;42.138;24.746;2023-05-20T02:59:31;99743.28;;;15.30;100.00
4745;BME280;2386;42.138;24.746;2023-05-20T03:01:56;99749.22;;;15.22;100.00
4745;BME280;2386;42.138;24.746;2023-05-20T03:04:22;99745.13;;;15.24;100.00
4745;BME280;2386;42.138;24.746;2023-05-20T03:06:49;99750.84;;;15.23;100.00
4745;BME280;2386;42.138;24.746;2023-05-20T03:09:16;99760.13;;;15.22;100.00
4745;BME280;2386;42.138;24.746;2023-05-20T03:11:44;99753.38;;;15.29;100.00
4745;BME280;2386;42.138;24.746;2023-05-20T03:14:09;99752.66;;;15.39;100.00
4745;BME280;2386;42.138;24.746;2023-05-20T03:16:34;99751.00;;;15.38;100.00
4745;BME280;2386;42.138;24.746;2023-05-20T03:19:03;99748.44;;;15.26;100.00
4745;BME280;2386;42.138;24.746;2023-05-20T03:21:28;99757.31;;;15.38;100.00
4745;BME280;2386;42.138;24.746;2023-05-20T03:23:53;99752.44;;;15.45;100.00
4745;BME280;2386;42.138;24.746;2023-05-20T03:26:19;99768.38;;;15.54;100.00
4745;BME280;2386;42.138;24.746;2023-05-20T03:28:45;99769.78;;;15.56;100.00
4745;BME280;2386;42.138;24.746;2023-05-20T03:31:11;99788.44;;;15.64;100.00
4745;BME280;2386;42.138;24.746;2023-05-20T03:33:36;99806.19;;;15.62;100.00
4745;BME280;2386;42.138;24.746;2023-05-20T03:36:02;99817.22;;;15.72;100.00
4745;BME280;2386;42.138;24.746;2023-05-20T03:38:27;99827.28;;;15.66;100.00
4745;BME280;2386;42.138;24.746;2023-05-20T03:40:52;99825.06;;;15.63;100.00
4745;BME280;2386;42.138;24.746;2023-05-20T03:43:18;99818.22;;;15.61;100.00
4745;BME280;2386;42.138;24.746;2023-05-20T03:45:43;99816.03;;;15.63;100.00
4745;BME280;2386;42.138;24.746;2023-05-20T03:48:08;99827.25;;;15.61;100.00
4745;BME280;2386;42.138;24.746;2023-05-20T03:50:34;99824.31;;;15.68;100.00
4745;BME280;2386;42.138;24.746;2023-05-20T03:52:59;99822.97;;;15.70;100.00
4745;BME280;2386;42.138;24.746;2023-05-20T03:55:25;99812.06;;;15.75;100.00
4745;BME280;2386;42.138;24.746;2023-05-20T03:57:51;99813.16;;;15.74;100.00
4745;BME280;2386;42.138;24.746;2023-05-20T04:00:17;99814.28;;;15.78;100.00
4745;BME280;2386;42.138;24.746;2023-05-20T04:02:42;99808.25;;;15.76;100.00
4745;BME280;2386;42.138;24.746;2023-05-20T04:05:08;99808.94;;;15.62;100.00
4745;BME280;2386;42.138;24.746;2023-05-20T04:07:34;99814.59;;;15.55;100.00
4745;BME280;2386;42.138;24.746;2023-05-20T04:10:00;99815.78;;;15.59;100.00
4745;BME280;2386;42.138;24.746;2023-05-20T04:12:25;99814.66;;;15.60;100.00
4745;BME280;2386;42.138;24.746;2023-05-20T04:14:58;99822.34;;;15.63;100.00
4745;BME280;2386;42.138;24.746;2023-05-20T04:17:29;99820.75;;;15.67;100.00
4745;BME280;2386;42.138;24.746;2023-05-20T04:19:55;99817.84;;;15.79;100.00
4745;BME280;2386;42.138;24.746;2023-05-20T04:22:21;99817.06;;;15.84;100.00
4745;BME280;2386;42.138;24.746;2023-05-20T04:24:47;99814.94;;;15.91;100.00
4745;BME280;2386;42.138;24.746;2023-05-20T04:27:13;99815.16;;;15.84;100.00
4745;BME280;2386;42.138;24.746;2023-05-20T04:29:38;99818.19;;;15.88;100.00
4745;BME280;2386;42.138;24.746;2023-05-20T04:32:06;99802.34;;;15.90;100.00
4745;BME280;2386;42.138;24.746;2023-05-20T04:34:31;99803.47;;;15.94;100.00
4745;BME280;2386;42.138;24.746;2023-05-20T04:36:59;99799.66;;;15.95;100.00
4745;BME280;2386;42.138;24.746;2023-05-20T04:39:25;99803.00;;;16.02;100.00
4745;BME280;2386;42.138;24.746;2023-05-20T04:41:51;99802.53;;;16.15;100.00
4745;BME280;2386;42.138;24.746;2023-05-20T04:44:18;99808.06;;;16.20;100.00
4745;BME280;2386;42.138;24.746;2023-05-20T04:46:44;99797.94;;;16.21;100.00
4745;BME280;2386;42.138;24.746;2023-05-20T04:49:10;99808.00;;;16.15;100.00
4745;BME280;2386;42.138;24.746;2023-05-20T04:51:36;99812.94;;;16.13;100.00
4745;BME280;2386;42.138;24.746;2023-05-20T04:54:01;99815.47;;;16.25;100.00
4745;BME280;2386;42.138;24.746;2023-05-20T04:56:27;99819.91;;;16.36;100.00
4745;BME280;2386;42.138;24.746;2023-05-20T04:58:52;99825.97;;;16.43;100.00
4745;BME280;2386;42.138;24.746;2023-05-20T05:01:18;99823.00;;;16.50;100.00
4745;BME280;2386;42.138;24.746;2023-05-20T05:03:43;99816.97;;;16.48;100.00
4745;BME280;2386;42.138;24.746;2023-05-20T05:06:09;99818.41;;;16.60;100.00
4745;BME280;2386;42.138;24.746;2023-05-20T05:08:34;99820.69;;;16.68;100.00
4745;BME280;2386;42.138;24.746;2023-05-20T05:10:59;99821.56;;;16.79;100.00
4745;BME280;2386;42.138;24.746;2023-05-20T05:13:25;99818.59;;;16.86;100.00
4745;BME280;2386;42.138;24.746;2023-05-20T05:16:00;99826.28;;;16.89;100.00
4745;BME280;2386;42.138;24.746;2023-05-20T05:18:26;99822.16;;;16.91;100.00
4745;BME280;2386;42.138;24.746;2023-05-20T05:21:01;99815.06;;;16.95;100.00
4745;BME280;2386;42.138;24.746;2023-05-20T05:23:27;99812.91;;;17.07;100.00
4745;BME280;2386;42.138;24.746;2023-05-20T05:25:52;99817.56;;;17.07;100.00
4745;BME280;2386;42.138;24.746;2023-05-20T05:28:18;99815.09;;;17.11;100.00
4745;BME280;2386;42.138;24.746;2023-05-20T05:30:43;99821.72;;;17.25;100.00
4745;BME280;2386;42.138;24.746;2023-05-20T05:33:09;99825.56;;;17.29;100.00
4745;BME280;2386;42.138;24.746;2023-05-20T05:35:34;99828.34;;;17.39;100.00
4745;BME280;2386;42.138;24.746;2023-05-20T05:38:00;99819.59;;;17.47;98.69
4745;BME280;2386;42.138;24.746;2023-05-20T05:40:27;99826.19;;;17.56;99.47
4745;BME280;2386;42.138;24.746;2023-05-20T05:42:52;99830.91;;;17.71;98.42
4745;BME280;2386;42.138;24.746;2023-05-20T05:45:17;99825.16;;;17.72;96.95
4745;BME280;2386;42.138;24.746;2023-05-20T05:47:43;99825.69;;;17.85;98.27
4745;BME280;2386;42.138;24.746;2023-05-20T05:50:08;99824.59;;;17.96;99.31
4745;BME280;2386;42.138;24.746;2023-05-20T05:52:35;99818.56;;;17.89;95.25
4745;BME280;2386;42.138;24.746;2023-05-20T05:55:01;99813.63;;;18.01;97.07
4745;BME280;2386;42.138;24.746;2023-05-20T05:57:26;99813.06;;;18.09;98.99
4745;BME280;2386;42.138;24.746;2023-05-20T05:59:51;99801.81;;;18.16;97.56
4745;BME280;2386;42.138;24.746;2023-05-20T06:02:17;99801.53;;;18.22;97.79
4745;BME280;2386;42.138;24.746;2023-05-20T06:04:42;99807.84;;;18.33;93.15
4745;BME280;2386;42.138;24.746;2023-05-20T06:07:17;99807.00;;;18.43;90.77
4745;BME280;2386;42.138;24.746;2023-05-20T06:09:52;99806.16;;;18.52;89.47
4745;BME280;2386;42.138;24.746;2023-05-20T06:12:17;99810.50;;;18.63;88.89
4745;BME280;2386;42.138;24.746;2023-05-20T06:14:43;99817.09;;;18.73;87.07
4745;BME280;2386;42.138;24.746;2023-05-20T06:17:08;99814.28;;;18.88;89.27
4745;BME280;2386;42.138;24.746;2023-05-20T06:19:33;99818.94;;;18.97;88.86
4745;BME280;2386;42.138;24.746;2023-05-20T06:21:59;99800.75;;;19.07;92.22
4745;BME280;2386;42.138;24.746;2023-05-20T06:24:24;99797.97;;;19.12;89.38
4745;BME280;2386;42.138;24.746;2023-05-20T06:26:50;99795.16;;;19.22;88.18
4745;BME280;2386;42.138;24.746;2023-05-20T06:29:16;99806.41;;;19.30;84.38
4745;BME280;2386;42.138;24.746;2023-05-20T06:31:41;99806.03;;;19.42;82.72
4745;BME280;2386;42.138;24.746;2023-05-20T06:34:07;99807.66;;;19.48;83.51
4745;BME280;2386;42.138;24.746;2023-05-20T06:36:32;99792.50;;;19.56;82.53
4745;BME280;2386;42.138;24.746;2023-05-20T06:38:58;99812.47;;;19.72;79.37
4745;BME280;2386;42.138;24.746;2023-05-20T06:41:23;99801.97;;;19.79;80.09
4745;BME280;2386;42.138;24.746;2023-05-20T06:43:50;99799.97;;;19.89;80.43
4745;BME280;2386;42.138;24.746;2023-05-20T06:46:17;99796.34;;;19.94;79.13
4745;BME280;2386;42.138;24.746;2023-05-20T06:48:42;99789.16;;;19.98;72.82
4745;BME280;2386;42.138;24.746;2023-05-20T06:51:08;99792.88;;;20.07;71.96
4745;BME280;2386;42.138;24.746;2023-05-20T06:53:34;99801.09;;;20.12;71.20
4745;BME280;2386;42.138;24.746;2023-05-20T06:55:59;99785.06;;;20.19;73.49
4745;BME280;2386;42.138;24.746;2023-05-20T06:58:25;99784.44;;;20.27;74.84
4745;BME280;2386;42.138;24.746;2023-05-20T07:00:50;99785.44;;;20.37;75.59
4745;BME280;2386;42.138;24.746;2023-05-20T07:03:15;99787.69;;;20.34;74.07
4745;BME280;2386;42.138;24.746;2023-05-20T07:05:41;99789.25;;;20.46;72.19
4745;BME280;2386;42.138;24.746;2023-05-20T07:08:06;99793.00;;;20.55;71.76
4745;BME280;2386;42.138;24.746;2023-05-20T07:10:32;99791.84;;;20.61;72.26
4745;BME280;2386;42.138;24.746;2023-05-20T07:12:58;99796.19;;;20.67;72.88
4745;BME280;2386;42.138;24.746;2023-05-20T07:15:23;99796.66;;;20.74;70.47
4745;BME280;2386;42.138;24.746;2023-05-20T07:17:49;99799.84;;;20.81;68.50
4745;BME280;2386;42.138;24.746;2023-05-20T07:20:14;99798.22;;;20.80;64.95
4745;BME280;2386;42.138;24.746;2023-05-20T07:22:39;99794.56;;;20.85;66.08
4745;BME280;2386;42.138;24.746;2023-05-20T07:25:05;99800.25;;;20.93;63.88
4745;BME280;2386;42.138;24.746;2023-05-20T07:27:31;99797.16;;;21.00;63.92
4745;BME280;2386;42.138;24.746;2023-05-20T07:29:57;99799.91;;;21.00;63.57
4745;BME280;2386;42.138;24.746;2023-05-20T07:32:22;99797.59;;;21.07;62.75
4745;BME280;2386;42.138;24.746;2023-05-20T07:34:47;99810.22;;;21.13;59.68
4745;BME280;2386;42.138;24.746;2023-05-20T07:37:13;99803.28;;;21.16;59.34
4745;BME280;2386;42.138;24.746;2023-05-20T07:39:39;99810.94;;;21.24;59.88
4745;BME280;2386;42.138;24.746;2023-05-20T07:42:04;99807.50;;;21.32;59.43
4745;BME280;2386;42.138;24.746;2023-05-20T07:44:30;99801.41;;;21.35;59.34
4745;BME280;2386;42.138;24.746;2023-05-20T07:46:55;99802.44;;;21.39;59.31
4745;BME280;2386;42.138;24.746;2023-05-20T07:49:21;99803.72;;;21.47;59.69
4745;BME280;2386;42.138;24.746;2023-05-20T07:51:46;99796.19;;;21.52;60.62
4745;BME280;2386;42.138;24.746;2023-05-20T07:54:11;99809.28;;;21.60;61.50
4745;BME280;2386;42.138;24.746;2023-05-20T07:56:37;99798.47;;;21.64;61.63
4745;BME280;2386;42.138;24.746;2023-05-20T07:59:02;99797.72;;;21.77;62.34
4745;BME280;2386;42.138;24.746;2023-05-20T08:01:28;99797.78;;;21.91;60.99
4745;BME280;2386;42.138;24.746;2023-05-20T08:03:54;99796.56;;;21.97;58.29
4745;BME280;2386;42.138;24.746;2023-05-20T08:06:20;99794.31;;;21.99;57.69
4745;BME280;2386;42.138;24.746;2023-05-20T08:08:46;99787.09;;;22.03;58.26
4745;BME280;2386;42.138;24.746;2023-05-20T08:11:12;99792.69;;;21.98;57.37
4745;BME280;2386;42.138;24.746;2023-05-20T08:13:37;99793.44;;;21.85;56.00
4745;BME280;2386;42.138;24.746;2023-05-20T08:16:03;99785.69;;;21.87;55.15
4745;BME280;2386;42.138;24.746;2023-05-20T08:18:30;99797.16;;;21.94;55.85
4745;BME280;2386;42.138;24.746;2023-05-20T08:20:57;99788.88;;;21.94;55.55
4745;BME280;2386;42.138;24.746;2023-05-20T08:23:23;99792.31;;;22.05;58.25
4745;BME280;2386;42.138;24.746;2023-05-20T08:25:48;99794.31;;;22.18;58.07
4745;BME280;2386;42.138;24.746;2023-05-20T08:28:13;99783.16;;;22.37;58.48
4745;BME280;2386;42.138;24.746;2023-05-20T08:30:39;99776.63;;;22.46;55.51
4745;BME280;2386;42.138;24.746;2023-05-20T08:33:05;99774.78;;;22.55;55.39
4745;BME280;2386;42.138;24.746;2023-05-20T08:35:31;99773.56;;;22.61;56.18
4745;BME280;2386;42.138;24.746;2023-05-20T08:37:56;99784.00;;;22.65;55.50
4745;BME280;2386;42.138;24.746;2023-05-20T08:40:22;99777.88;;;22.68;55.14
4745;BME280;2386;42.138;24.746;2023-05-20T08:42:49;99791.22;;;22.79;56.71
4745;BME280;2386;42.138;24.746;2023-05-20T08:45:18;99789.28;;;22.93;54.75
4745;BME280;2386;42.138;24.746;2023-05-20T08:47:45;99787.41;;;23.03;52.41
4745;BME280;2386;42.138;24.746;2023-05-20T08:50:12;99783.59;;;23.12;51.46
4745;BME280;2386;42.138;24.746;2023-05-20T08:52:46;99791.13;;;23.34;52.96
4745;BME280;2386;42.138;24.746;2023-05-20T08:55:18;99788.75;;;23.41;53.00
4745;BME280;2386;42.138;24.746;2023-05-20T08:57:49;99794.91;;;23.52;53.46
4745;BME280;2386;42.138;24.746;2023-05-20T09:00:14;99793.38;;;23.59;52.35
4745;BME280;2386;42.138;24.746;2023-05-20T09:02:42;99781.53;;;23.68;53.56
4745;BME280;2386;42.138;24.746;2023-05-20T09:05:09;99780.44;;;23.77;53.01
4745;BME280;2386;42.138;24.746;2023-05-20T09:07:35;99778.25;;;23.88;53.50
4745;BME280;2386;42.138;24.746;2023-05-20T09:10:00;99779.25;;;23.92;51.95
4745;BME280;2386;42.138;24.746;2023-05-20T09:12:26;99766.28;;;24.01;51.60
4745;BME280;2386;42.138;24.746;2023-05-20T09:14:51;99781.06;;;24.19;50.89
4745;BME280;2386;42.138;24.746;2023-05-20T09:17:16;99781.75;;;24.24;49.02
4745;BME280;2386;42.138;24.746;2023-05-20T09:19:42;99785.16;;;24.21;48.61
4745;BME280;2386;42.138;24.746;2023-05-20T09:22:08;99786.06;;;24.31;49.04
4745;BME280;2386;42.138;24.746;2023-05-20T09:24:33;99778.41;;;24.36;49.16
4745;BME280;2386;42.138;24.746;2023-05-20T09:26:59;99773.06;;;24.40;50.56
4745;BME280;2386;42.138;24.746;2023-05-20T09:29:25;99780.41;;;24.44;51.61
4745;BME280;2386;42.138;24.746;2023-05-20T09:31:51;99782.88;;;24.46;51.03
4745;BME280;2386;42.138;24.746;2023-05-20T09:34:18;99782.50;;;24.39;49.96
4745;BME280;2386;42.138;24.746;2023-05-20T09:36:48;99786.75;;;24.36;51.42
4745;BME280;2386;42.138;24.746;2023-05-20T09:39:15;99787.09;;;24.21;51.95
4745;BME280;2386;42.138;24.746;2023-05-20T09:41:54;99785.66;;;24.23;52.32
4745;BME280;2386;42.138;24.746;2023-05-20T09:44:20;99775.91;;;24.26;52.17
4745;BME280;2386;42.138;24.746;2023-05-20T09:46:47;99779.25;;;24.37;53.54
4745;BME280;2386;42.138;24.746;2023-05-20T09:49:13;99766.06;;;24.42;53.68
4745;BME280;2386;42.138;24.746;2023-05-20T09:51:40;99756.59;;;24.43;52.11
4745;BME280;2386;42.138;24.746;2023-05-20T09:54:06;99756.78;;;24.55;51.48
4745;BME280;2386;42.138;24.746;2023-05-20T09:56:33;99758.28;;;24.62;51.18
4745;BME280;2386;42.138;24.746;2023-05-20T09:58:59;99746.38;;;24.61;49.17
4745;BME280;2386;42.138;24.746;2023-05-20T10:01:26;99742.50;;;24.79;49.55
4745;BME280;2386;42.138;24.746;2023-05-20T10:03:53;99748.97;;;24.97;50.05
4745;BME280;2386;42.138;24.746;2023-05-20T10:06:32;99750.63;;;25.07;51.27
4745;BME280;2386;42.138;24.746;2023-05-20T10:09:14;99749.31;;;25.13;50.86
4745;BME280;2386;42.138;24.746;2023-05-20T10:19:48;99750.47;;;25.20;49.44
4745;BME280;2386;42.138;24.746;2023-05-20T10:22:24;99746.06;;;25.19;48.73
4745;BME280;2386;42.138;24.746;2023-05-20T10:25:00;99737.22;;;25.09;49.82
4745;BME280;2386;42.138;24.746;2023-05-20T10:27:41;99744.09;;;25.20;50.09
4745;BME280;2386;42.138;24.746;2023-05-20T10:30:14;99760.09;;;25.32;49.19
4745;BME280;2386;42.138;24.746;2023-05-20T10:32:56;99756.66;;;25.35;45.67
4745;BME280;2386;42.138;24.746;2023-05-20T10:35:25;99755.69;;;25.39;43.70
4745;BME280;2386;42.138;24.746;2023-05-20T10:37:53;99746.06;;;25.37;42.04
4745;BME280;2386;42.138;24.746;2023-05-20T10:40:21;99756.03;;;25.46;41.89
4745;BME280;2386;42.138;24.746;2023-05-20T10:42:47;99750.63;;;25.50;41.39
4745;BME280;2386;42.138;24.746;2023-05-20T10:45:33;99751.13;;;25.61;41.21
4745;BME280;2386;42.138;24.746;2023-05-20T10:48:01;99744.75;;;25.60;41.84
4745;BME280;2386;42.138;24.746;2023-05-20T10:50:35;99753.75;;;25.57;41.84
4745;BME280;2386;42.138;24.746;2023-05-20T10:53:05;99757.00;;;25.50;43.22
4745;BME280;2386;42.138;24.746;2023-05-20T10:55:38;99756.50;;;25.40;44.00
4745;BME280;2386;42.138;24.746;2023-05-20T10:58:04;99752.41;;;25.37;44.30
4745;BME280;2386;42.138;24.746;2023-05-20T11:00:33;99755.03;;;25.51;44.54
4745;BME280;2386;42.138;24.746;2023-05-20T11:02:59;99756.69;;;25.61;44.30
4745;BME280;2386;42.138;24.746;2023-05-20T11:05:25;99756.53;;;25.74;44.31
4745;BME280;2386;42.138;24.746;2023-05-20T11:07:59;99746.56;;;25.82;45.02
4745;BME280;2386;42.138;24.746;2023-05-20T11:10:25;99739.88;;;25.74;44.40
4745;BME280;2386;42.138;24.746;2023-05-20T11:12:50;99754.22;;;25.59;44.29
4745;BME280;2386;42.138;24.746;2023-05-20T11:15:16;99746.53;;;25.47;43.84
4745;BME280;2386;42.138;24.746;2023-05-20T11:17:55;99748.69;;;25.25;43.58
4745;BME280;2386;42.138;24.746;2023-05-20T11:20:22;99734.44;;;25.26;44.06
4745;BME280;2386;42.138;24.746;2023-05-20T11:22:52;99740.97;;;25.30;44.07
4745;BME280;2386;42.138;24.746;2023-05-20T11:25:19;99728.72;;;25.40;44.59
4745;BME280;2386;42.138;24.746;2023-05-20T11:27:45;99743.78;;;25.56;43.58
4745;BME280;2386;42.138;24.746;2023-05-20T11:30:13;99731.88;;;25.64;43.28
4745;BME280;2386;42.138;24.746;2023-05-20T11:33:03;99727.94;;;25.74;44.11
4745;BME280;2386;42.138;24.746;2023-05-20T11:35:30;99726.94;;;25.87;43.89
4745;BME280;2386;42.138;24.746;2023-05-20T11:38:06;99721.03;;;25.97;43.37
4745;BME280;2386;42.138;24.746;2023-05-20T11:40:35;99725.84;;;26.17;43.54
4745;BME280;2386;42.138;24.746;2023-05-20T11:43:01;99720.28;;;26.35;44.67
4745;BME280;2386;42.138;24.746;2023-05-20T11:45:38;99715.66;;;26.39;43.97
4745;BME280;2386;42.138;24.746;2023-05-20T11:48:04;99728.94;;;26.33;43.07
4745;BME280;2386;42.138;24.746;2023-05-20T11:50:45;99728.47;;;26.23;42.52
4745;BME280;2386;42.138;24.746;2023-05-20T11:53:17;99727.84;;;26.08;42.66
4745;BME280;2386;42.138;24.746;2023-05-20T11:55:46;99722.69;;;25.90;43.47
4745;BME280;2386;42.138;24.746;2023-05-20T11:58:17;99720.59;;;25.69;41.10
4745;BME280;2386;42.138;24.746;2023-05-20T12:00:43;99728.91;;;25.61;41.31
4745;BME280;2386;42.138;24.746;2023-05-20T12:03:09;99726.94;;;25.61;42.90
4745;BME280;2386;42.138;24.746;2023-05-20T12:05:35;99722.38;;;25.65;41.92
4745;BME280;2386;42.138;24.746;2023-05-20T12:08:01;99715.34;;;25.68;41.73
4745;BME280;2386;42.138;24.746;2023-05-20T12:10:26;99722.38;;;25.65;42.73
4745;BME280;2386;42.138;24.746;2023-05-20T12:12:52;99716.81;;;25.57;43.13
4745;BME280;2386;42.138;24.746;2023-05-20T12:15:17;99723.00;;;25.45;43.70
4745;BME280;2386;42.138;24.746;2023-05-20T12:17:48;99724.81;;;25.32;43.77
4745;BME280;2386;42.138;24.746;2023-05-20T12:20:15;99725.31;;;25.17;43.73
4745;BME280;2386;42.138;24.746;2023-05-20T12:22:42;99713.84;;;25.01;43.68
4745;BME280;2386;42.138;24.746;2023-05-20T12:25:09;99719.66;;;24.82;42.18
4745;BME280;2386;42.138;24.746;2023-05-20T12:27:35;99705.59;;;24.70;42.67
4745;BME280;2386;42.138;24.746;2023-05-20T12:30:00;99709.47;;;24.61;43.51
4745;BME280;2386;42.138;24.746;2023-05-20T12:32:26;99704.25;;;24.59;43.64
4745;BME280;2386;42.138;24.746;2023-05-20T12:34:51;99707.53;;;24.61;44.67
4745;BME280;2386;42.138;24.746;2023-05-20T12:37:16;99695.13;;;24.58;44.32
4745;BME280;2386;42.138;24.746;2023-05-20T12:39:52;99696.94;;;24.63;44.19
4745;BME280;2386;42.138;24.746;2023-05-20T12:42:18;99689.81;;;24.88;46.43
4745;BME280;2386;42.138;24.746;2023-05-20T12:44:43;99693.94;;;24.99;46.21
4745;BME280;2386;42.138;24.746;2023-05-20T12:47:08;99686.59;;;25.03;45.43
4745;BME280;2386;42.138;24.746;2023-05-20T12:49:34;99673.03;;;25.02;45.95
4745;BME280;2386;42.138;24.746;2023-05-20T12:51:59;99679.84;;;24.96;45.74
4745;BME280;2386;42.138;24.746;2023-05-20T12:54:25;99678.88;;;24.92;46.04
4745;BME280;2386;42.138;24.746;2023-05-20T12:56:55;99668.56;;;24.83;48.31
4745;BME280;2386;42.138;24.746;2023-05-20T12:59:21;99660.38;;;24.61;45.50
4745;BME280;2386;42.138;24.746;2023-05-20T13:01:47;99665.06;;;24.52;47.48
4745;BME280;2386;42.138;24.746;2023-05-20T13:04:12;99656.22;;;24.33;46.25
4745;BME280;2386;42.138;24.746;2023-05-20T13:06:38;99654.34;;;24.50;46.26
4745;BME280;2386;42.138;24.746;2023-05-20T13:09:03;99647.50;;;24.82;46.44
4745;BME280;2386;42.138;24.746;2023-05-20T13:11:28;99648.56;;;26.70;45.66
4745;BME280;2386;42.138;24.746;2023-05-20T13:13:54;99641.59;;;28.04;39.44
4745;BME280;2386;42.138;24.746;2023-05-20T13:16:23;99651.53;;;29.15;38.73